Terminal Aerodrome Forecast
Issued by NWS

Home | Current Version | Previous Version | Text Only | Print | Product List | Glossary On
Versions: 1 2 3 4 5 6 7 8 9 10 11 12 13
000
FTUS45 KSLC 081120
TAFPVU
TAF
KPVU 081120Z 0812/0912 VRB04KT P6SM SCT060 BKN150
     FM081600 VRB04KT P6SM SCT040 BKN080
     FM082300 VRB04KT P6SM VCSH SCT020 BKN040
     FM090300 VRB04KT 2SM -SN BR SCT007 BKN015
      AMD LTD TO CLD VIS AND WIND=

USA.gov is the U.S. government's official web portal to all federal, state and local government web resources and services.